Time;durP1;ratioP1;P1;durP2;ratioP2;P2;SDS_P1;SDS_P2;PMS_P1;PMS_P2;Temp;Humidity;BMP_temperature;BMP_pressure;BME280_temperature;BME280_humidity;BME280_pressure;Samples;Min_cycle;Max_cycle;Signal;HPM_P1;HPM_P2
2023/06/17 00:02:09;;;;;;;14.52;4.47;;;;;;;19.65;44.35;101557.22;5053464;28;20039;-62
2023/06/17 00:04:34;;;;;;;12.88;4.65;;;;;;;19.54;44.81;101556.50;5035373;28;20021;-62
2023/06/17 00:07:01;;;;;;;11.40;4.32;;;;;;;19.42;45.33;101565.59;5053306;28;20088;-62
2023/06/17 00:09:26;;;;;;;13.93;4.75;;;;;;;19.48;45.15;101566.38;5053424;28;20031;-62
2023/06/17 00:11:52;;;;;;;7.15;4.35;;;;;;;19.48;45.27;101568.16;5053618;28;20115;-62
2023/06/17 00:14:20;;;;;;;8.15;4.53;;;;;;;19.51;45.00;101557.41;5053568;28;20120;-62
2023/06/17 00:16:46;;;;;;;12.55;4.72;;;;;;;19.50;45.00;101552.97;5053394;28;20100;-62
2023/06/17 00:19:15;;;;;;;10.35;5.20;;;;;;;19.54;44.74;101553.81;5053200;28;20104;-62
2023/06/17 00:21:48;;;;;;;15.80;4.88;;;;;;;19.47;44.57;101543.16;5053135;28;20036;-62
2023/06/17 00:24:14;;;;;;;13.48;5.03;;;;;;;19.47;44.56;101545.84;5053124;28;20382;-62
2023/06/17 00:26:40;;;;;;;16.20;5.03;;;;;;;19.39;45.16;101531.66;5053127;28;20471;-61
2023/06/17 00:29:06;;;;;;;7.13;4.40;;;;;;;19.35;45.72;101524.56;5053184;28;20070;-62
2023/06/17 00:31:32;;;;;;;10.23;4.80;;;;;;;19.36;46.36;101541.56;5053398;28;20021;-62
2023/06/17 00:33:57;;;;;;;8.98;4.90;;;;;;;19.29;46.67;101537.19;5035574;28;20037;-62
2023/06/17 00:36:23;;;;;;;12.68;4.88;;;;;;;19.20;47.11;101543.56;5035136;28;20053;-61
2023/06/17 00:38:48;;;;;;;8.73;4.88;;;;;;;19.19;46.95;101544.50;5053072;28;20033;-62
2023/06/17 00:41:14;;;;;;;10.35;4.78;;;;;;;19.16;46.95;101542.72;5053077;28;20033;-61
2023/06/17 00:43:39;;;;;;;9.68;4.60;;;;;;;19.14;47.12;101539.19;5052929;28;20547;-62
2023/06/17 00:46:06;;;;;;;9.07;4.63;;;;;;;19.09;47.38;101542.81;5053159;28;20025;-62
2023/06/17 00:48:32;;;;;;;8.85;4.50;;;;;;;19.00;48.10;101538.47;5052621;28;20086;-62
2023/06/17 00:51:01;;;;;;;8.07;4.70;;;;;;;18.99;47.86;101547.41;5052729;28;20060;-62
2023/06/17 00:53:29;;;;;;;12.30;4.80;;;;;;;18.92;48.22;101548.38;5053065;28;20025;-62
2023/06/17 00:55:54;;;;;;;12.80;4.60;;;;;;;18.84;48.78;101534.22;5052724;28;20032;-62
2023/06/17 00:58:20;;;;;;;9.48;4.60;;;;;;;18.75;49.25;101544.13;5052463;28;20037;-61
2023/06/17 01:00:46;;;;;;;10.40;5.13;;;;;;;18.71;48.78;101538.81;5052725;28;20036;-62
2023/06/17 01:03:13;;;;;;;8.55;5.13;;;;;;;18.56;48.42;101536.31;5052588;28;20386;-61
2023/06/17 01:05:39;;;;;;;9.73;5.30;;;;;;;18.47;48.66;101543.53;5052481;28;20043;-61
2023/06/17 01:08:19;;;;;;;10.02;5.15;;;;;;;18.40;48.04;101547.16;5052546;28;20112;-62
2023/06/17 01:11:03;;;;;;;7.93;5.13;;;;;;;18.49;47.20;101541.72;5052680;28;20021;-62
2023/06/17 01:13:30;;;;;;;10.15;5.30;;;;;;;18.36;49.14;101539.19;5056789;28;20028;-61
2023/06/17 01:15:57;;;;;;;8.25;5.32;;;;;;;18.31;49.10;101535.69;5056686;28;20025;-62
2023/06/17 01:18:24;;;;;;;6.65;5.30;;;;;;;18.32;49.34;101527.63;5056410;28;20386;-62
2023/06/17 01:20:53;;;;;;;9.43;5.32;;;;;;;18.31;49.57;101536.56;5056546;28;20071;-61
2023/06/17 01:23:31;;;;;;;13.85;5.57;;;;;;;18.32;49.24;101534.75;5056392;28;20113;-62
2023/06/17 01:25:57;;;;;;;8.80;5.72;;;;;;;18.27;49.73;101530.34;5056788;28;20060;-62
2023/06/17 01:28:24;;;;;;;10.35;5.38;;;;;;;18.23;49.88;101528.59;5056551;28;20021;-62
2023/06/17 01:30:56;;;;;;;13.05;5.28;;;;;;;18.24;49.75;101530.41;5056228;28;20033;-62
2023/06/17 01:33:23;;;;;;;6.55;4.93;;;;;;;18.21;49.93;101535.78;5056619;28;20037;-61
2023/06/17 01:36:04;;;;;;;8.55;5.70;;;;;;;18.21;50.56;101534.88;5056146;28;20108;-62
2023/06/17 01:38:38;;;;;;;10.45;5.47;;;;;;;18.04;51.03;101526.13;5038349;28;20021;-61
2023/06/17 01:41:13;;;;;;;11.48;5.32;;;;;;;17.99;50.57;101524.38;5056338;28;20112;-62
2023/06/17 01:43:41;;;;;;;7.53;4.90;;;;;;;17.86;51.02;101529.84;5056144;28;20028;-62
2023/06/17 01:46:07;;;;;;;11.38;5.78;;;;;;;17.70;51.17;101526.38;5056448;28;20029;-62
2023/06/17 01:48:33;;;;;;;10.38;5.63;;;;;;;17.35;52.03;101524.84;5056227;28;20414;-62
2023/06/17 01:50:58;;;;;;;12.07;5.75;;;;;;;17.25;52.40;101529.34;5038224;28;20025;-62
2023/06/17 01:53:24;;;;;;;10.73;5.80;;;;;;;17.15;52.92;101529.41;5055959;28;20044;-62
2023/06/17 01:55:51;;;;;;;8.68;5.20;;;;;;;17.20;52.66;101530.28;5055864;28;20086;-62
2023/06/17 01:58:17;;;;;;;12.07;5.78;;;;;;;17.20;52.77;101531.16;5055587;28;20135;-62
2023/06/17 02:00:44;;;;;;;11.82;5.78;;;;;;;17.30;52.45;101533.75;5055826;28;20044;-62
2023/06/17 02:03:10;;;;;;;11.98;5.55;;;;;;;17.43;52.34;101538.13;5055723;28;20167;-61
2023/06/17 02:05:35;;;;;;;8.38;5.10;;;;;;;17.52;52.00;101530.09;5055807;28;20029;-62
2023/06/17 02:08:04;;;;;;;11.70;5.22;;;;;;;17.54;52.64;101525.59;5055868;28;20028;-61
2023/06/17 02:10:30;;;;;;;8.40;5.90;;;;;;;17.51;52.84;101529.19;5055725;28;20029;-62
2023/06/17 02:12:55;;;;;;;10.40;5.43;;;;;;;17.51;52.67;101520.28;5055851;28;20066;-62
2023/06/17 02:15:20;;;;;;;25.73;13.73;;;;;;;17.46;52.38;101528.31;5055569;28;20017;-62
2023/06/17 02:17:46;;;;;;;423.42;153.20;;;;;;;17.43;52.38;101523.03;5055437;28;20033;-62
2023/06/17 02:20:12;;;;;;;10.07;6.70;;;;;;;17.42;53.17;101521.22;5055772;28;20025;-62
2023/06/17 02:22:37;;;;;;;9.88;6.28;;;;;;;17.42;53.06;101515.88;5055436;28;20102;-62
2023/06/17 02:25:05;;;;;;;10.50;5.90;;;;;;;17.35;52.92;101514.16;5055372;28;20466;-61
2023/06/17 02:27:30;;;;;;;10.93;6.07;;;;;;;17.28;53.44;101513.31;5055623;28;20055;-61
2023/06/17 02:29:55;;;;;;;11.73;6.00;;;;;;;17.21;53.53;101514.22;5055469;28;20464;-62
2023/06/17 02:32:21;;;;;;;12.80;6.00;;;;;;;17.07;54.55;101509.88;5055168;28;20441;-62
2023/06/17 02:34:48;;;;;;;8.88;6.05;;;;;;;17.02;55.17;101517.91;5054999;28;20033;-61
2023/06/17 02:37:14;;;;;;;9.25;6.00;;;;;;;17.01;55.15;101514.34;5055432;28;20063;-61
2023/06/17 02:39:40;;;;;;;9.82;5.72;;;;;;;17.08;54.88;101517.88;5055317;28;20024;-61
2023/06/17 02:42:08;;;;;;;10.48;5.97;;;;;;;17.02;54.92;101510.78;5055023;28;20435;-61
2023/06/17 02:44:33;;;;;;;8.00;5.85;;;;;;;17.00;54.82;101511.66;5055111;28;20033;-62
2023/06/17 02:46:58;;;;;;;11.35;6.18;;;;;;;16.99;55.11;101509.91;5055065;28;20470;-61
2023/06/17 02:49:25;;;;;;;13.50;5.93;;;;;;;17.01;54.75;101506.34;5054938;28;20025;-61
2023/06/17 02:51:51;;;;;;;11.20;5.75;;;;;;;16.96;55.11;101505.50;5054788;28;20478;-61
2023/06/17 02:54:16;;;;;;;8.02;5.90;;;;;;;16.94;55.55;101509.03;5054937;28;20040;-61
2023/06/17 02:56:42;;;;;;;9.88;5.63;;;;;;;16.93;55.35;101501.94;5055104;28;20028;-61
2023/06/17 02:59:08;;;;;;;9.35;6.07;;;;;;;16.81;55.83;101499.31;5054721;28;20081;-61
2023/06/17 03:01:39;;;;;;;8.90;5.90;;;;;;;16.68;56.18;101498.44;5054877;28;20029;-61
2023/06/17 03:04:05;;;;;;;11.38;6.68;;;;;;;16.66;55.96;101493.13;5054697;28;20033;-61
2023/06/17 03:06:33;;;;;;;14.35;6.70;;;;;;;16.67;56.51;101500.25;5054870;28;20394;-61
2023/06/17 03:09:03;;;;;;;9.88;6.28;;;;;;;16.63;56.40;101492.25;5054565;28;20044;-62
2023/06/17 03:11:29;;;;;;;9.90;6.40;;;;;;;16.60;56.53;101493.13;5054364;28;20486;-62
2023/06/17 03:13:55;;;;;;;8.65;6.30;;;;;;;16.58;56.82;101494.94;5054686;28;20036;-61
2023/06/17 03:16:23;;;;;;;8.70;6.70;;;;;;;16.55;56.91;101491.38;5054271;28;20021;-61
2023/06/17 03:18:48;;;;;;;8.68;6.25;;;;;;;16.53;56.73;101494.97;5053956;28;20086;-61
2023/06/17 03:21:14;;;;;;;8.77;6.88;;;;;;;16.55;56.49;101494.94;5054102;28;20028;-62
2023/06/17 03:23:40;;;;;;;13.93;6.93;;;;;;;16.52;56.59;101494.94;5035955;28;20396;-61
2023/06/17 03:26:06;;;;;;;9.63;6.63;;;;;;;16.36;57.43;101502.13;5054165;28;20033;-64
2023/06/17 03:28:31;;;;;;;9.75;6.70;;;;;;;16.29;57.55;101492.34;5054136;28;20029;-61
2023/06/17 03:30:57;;;;;;;10.82;6.68;;;;;;;16.27;56.91;101487.03;5053757;28;20032;-62
2023/06/17 03:33:22;;;;;;;9.95;6.13;;;;;;;16.36;56.57;101493.22;5053445;28;20108;-61
2023/06/17 03:35:48;;;;;;;9.27;5.93;;;;;;;16.31;56.74;101489.66;5053096;28;20028;-61
2023/06/17 03:38:13;;;;;;;10.95;6.30;;;;;;;16.31;56.70;101495.00;5053620;28;20057;-61
2023/06/17 03:40:39;;;;;;;11.07;6.35;;;;;;;16.28;56.77;101486.13;5035600;28;20040;-61
2023/06/17 03:43:04;;;;;;;13.38;6.05;;;;;;;16.27;56.69;101491.44;5053765;28;20039;-61
2023/06/17 03:45:30;;;;;;;12.25;6.38;;;;;;;16.18;57.17;101488.81;5053326;28;20029;-61
2023/06/17 03:47:57;;;;;;;12.20;6.00;;;;;;;16.37;56.78;101492.34;5053127;28;20079;-61
2023/06/17 03:50:22;;;;;;;11.55;6.50;;;;;;;16.45;56.61;101482.53;5053493;28;20025;-61
2023/06/17 03:52:48;;;;;;;14.77;6.75;;;;;;;16.44;56.31;101489.63;5053305;28;20044;-61
2023/06/17 03:55:13;;;;;;;9.43;6.38;;;;;;;16.42;56.31;101496.75;5053265;28;20028;-61
2023/06/17 03:57:40;;;;;;;13.43;6.55;;;;;;;16.33;57.66;101483.44;5053130;28;20084;-61
2023/06/17 04:00:06;;;;;;;17.98;6.53;;;;;;;16.33;57.65;101487.91;5053195;28;20403;-62
2023/06/17 04:02:32;;;;;;;11.60;6.60;;;;;;;16.27;57.53;101476.38;5053093;28;20025;-61
2023/06/17 04:05:00;;;;;;;11.85;6.30;;;;;;;16.35;57.26;101486.09;5052943;28;20475;-61
2023/06/17 04:07:27;;;;;;;12.35;6.68;;;;;;;16.29;57.34;101487.03;5052918;28;20363;-61
2023/06/17 04:09:52;;;;;;;8.55;6.88;;;;;;;16.27;57.65;101486.13;5053387;28;20028;-61
2023/06/17 04:12:18;;;;;;;11.30;7.00;;;;;;;16.32;58.36;101486.13;5053024;28;20037;-61
2023/06/17 04:14:43;;;;;;;12.85;7.22;;;;;;;16.37;58.18;101493.22;5052905;28;20028;-61
2023/06/17 04:17:09;;;;;;;12.95;7.63;;;;;;;16.31;58.32;101482.56;5053222;28;20029;-62
2023/06/17 04:19:37;;;;;;;11.55;7.72;;;;;;;16.45;58.39;101498.53;5034986;28;20094;-62
2023/06/17 04:22:04;;;;;;;10.45;7.13;;;;;;;16.50;58.46;101494.06;5052774;28;20029;-62
2023/06/17 04:24:30;;;;;;;11.80;8.20;;;;;;;16.58;57.54;101486.06;5034788;28;20025;-62
2023/06/17 04:26:55;;;;;;;12.27;8.35;;;;;;;16.68;57.06;101493.13;5052980;28;20029;-62
2023/06/17 04:29:21;;;;;;;12.55;8.40;;;;;;;16.68;57.36;101496.66;5052717;28;20367;-62
2023/06/17 04:31:46;;;;;;;11.75;8.68;;;;;;;16.62;57.69;101486.03;5052988;28;20112;-62
2023/06/17 04:34:21;;;;;;;11.20;8.82;;;;;;;16.63;58.11;101490.47;5052739;28;20143;-62
2023/06/17 04:36:48;;;;;;;13.23;9.43;;;;;;;16.55;58.67;101483.38;5052655;28;20045;-62
2023/06/17 04:39:14;;;;;;;14.48;9.35;;;;;;;16.58;58.87;101488.72;5052590;28;20533;-62
2023/06/17 04:41:40;;;;;;;14.38;9.55;;;;;;;16.61;58.71;101494.03;5052613;28;20053;-62
2023/06/17 04:44:08;;;;;;;11.32;8.82;;;;;;;16.82;58.78;101485.97;5052750;28;20033;-62
2023/06/17 04:46:33;;;;;;;11.98;8.98;;;;;;;16.99;57.85;101497.44;5052696;28;20039;-62
2023/06/17 04:48:58;;;;;;;12.10;9.00;;;;;;;17.07;57.83;101499.19;5052214;28;20025;-62
2023/06/17 04:51:24;;;;;;;12.27;9.27;;;;;;;17.14;57.27;101498.28;5052245;28;20470;-62
2023/06/17 04:53:50;;;;;;;13.48;9.55;;;;;;;17.17;57.71;101491.13;5034592;28;20034;-62
2023/06/17 04:56:16;;;;;;;11.25;9.70;;;;;;;17.26;57.86;101499.09;5052430;28;20021;-62
2023/06/17 04:58:41;;;;;;;14.95;10.10;;;;;;;17.36;58.46;101491.00;5052271;28;20053;-61
2023/06/17 05:01:09;;;;;;;13.27;9.95;;;;;;;17.46;58.54;101490.91;5052557;28;20032;-63
2023/06/17 05:03:34;;;;;;;13.05;10.02;;;;;;;17.48;58.76;101498.94;5052187;28;20029;-62
2023/06/17 05:06:00;;;;;;;12.73;9.80;;;;;;;17.66;58.29;101501.47;5052414;28;20063;-62
2023/06/17 05:08:25;;;;;;;14.57;10.75;;;;;;;17.82;57.20;101504.06;5052245;28;20124;-62
2023/06/17 05:10:50;;;;;;;19.13;10.98;;;;;;;17.95;56.87;101508.38;5052463;28;20021;-62
2023/06/17 05:13:16;;;;;;;15.68;10.77;;;;;;;18.14;55.94;101511.75;5052257;28;20060;-62
2023/06/17 05:15:41;;;;;;;15.00;11.50;;;;;;;18.26;55.72;101512.53;5052189;28;20036;-62
2023/06/17 05:18:06;;;;;;;14.77;11.88;;;;;;;18.44;54.49;101521.25;5052237;28;20182;-62
2023/06/17 05:20:32;;;;;;;15.85;12.23;;;;;;;18.56;54.29;101505.06;5052035;28;20530;-62
2023/06/17 05:22:57;;;;;;;18.13;12.70;;;;;;;18.71;54.97;101512.97;5034270;28;20029;-62
2023/06/17 05:25:23;;;;;;;18.50;12.80;;;;;;;18.96;54.27;101513.50;5052160;28;20056;-62
2023/06/17 05:27:48;;;;;;;19.17;12.65;;;;;;;19.11;53.98;101509.75;5052259;28;20124;-62
2023/06/17 05:30:14;;;;;;;17.73;13.10;;;;;;;19.27;54.92;101511.31;5052111;28;20078;-62
2023/06/17 05:32:39;;;;;;;19.13;12.30;;;;;;;19.45;53.94;101510.16;5051870;28;20067;-62
2023/06/17 05:35:05;;;;;;;16.50;13.50;;;;;;;19.55;53.96;101504.66;5051848;28;20034;-62
2023/06/17 05:37:31;;;;;;;19.10;13.63;;;;;;;19.62;54.13;101506.34;5051875;28;20029;-62
2023/06/17 05:39:57;;;;;;;20.73;13.55;;;;;;;19.59;53.75;101493.84;5051993;28;20454;-62
2023/06/17 05:42:22;;;;;;;23.40;13.07;;;;;;;19.84;53.04;101509.56;5051841;28;20138;-62
2023/06/17 05:44:47;;;;;;;19.52;13.82;;;;;;;19.91;53.13;101504.06;5051813;28;20037;-62
2023/06/17 05:47:13;;;;;;;17.83;13.70;;;;;;;20.11;52.47;101506.38;5051848;28;20061;-62
2023/06/17 05:49:39;;;;;;;18.25;12.98;;;;;;;20.24;51.99;101504.38;5051747;28;20033;-61
2023/06/17 05:52:05;;;;;;;19.95;13.75;;;;;;;20.29;51.63;101513.22;5051844;28;20433;-62
2023/06/17 05:54:31;;;;;;;16.88;13.02;;;;;;;20.45;51.43;101498.59;5051725;28;20037;-62
2023/06/17 05:56:56;;;;;;;16.67;13.00;;;;;;;20.72;51.40;101507.91;5052112;28;20071;-63
2023/06/17 05:59:23;;;;;;;17.88;13.60;;;;;;;20.85;50.49;101515.72;5055766;28;20465;-62
2023/06/17 06:01:49;;;;;;;18.15;13.80;;;;;;;21.08;50.37;101508.06;5055824;28;20072;-62
2023/06/17 06:04:14;;;;;;;19.38;14.02;;;;;;;21.40;49.85;101511.84;5054318;28;20068;-62
2023/06/17 06:06:40;;;;;;;16.08;13.52;;;;;;;21.59;49.35;101501.53;5055365;28;20503;-62
2023/06/17 06:09:05;;;;;;;21.65;13.88;;;;;;;21.77;48.76;101503.75;5055319;28;20025;-62
2023/06/17 06:11:31;;;;;;;19.75;13.98;;;;;;;21.85;49.06;101504.47;5055177;28;20429;-62
2023/06/17 06:13:56;;;;;;;18.77;13.93;;;;;;;21.98;48.59;101503.22;5055449;28;20025;-62
2023/06/17 06:16:22;;;;;;;18.95;13.30;;;;;;;22.17;48.65;101506.31;5055432;28;20025;-62
2023/06/17 06:18:47;;;;;;;17.25;13.85;;;;;;;22.38;48.13;101509.38;5055248;28;20485;-62
2023/06/17 06:21:12;;;;;;;18.25;13.60;;;;;;;22.56;47.44;101513.34;5055135;28;20036;-62
2023/06/17 06:23:38;;;;;;;17.50;13.10;;;;;;;22.73;47.51;101508.34;5055015;28;20502;-62
2023/06/17 06:26:03;;;;;;;14.48;12.60;;;;;;;22.92;47.04;101493.47;5055012;28;20446;-62
2023/06/17 06:28:29;;;;;;;20.00;13.20;;;;;;;23.03;46.81;101493.13;5054978;28;20032;-63
2023/06/17 06:30:54;;;;;;;18.02;11.75;;;;;;;23.12;44.65;101500.91;5054842;28;20029;-62
2023/06/17 06:33:21;;;;;;;13.90;11.27;;;;;;;23.13;44.41;101508.09;5054775;28;20039;-62
2023/06/17 06:35:48;;;;;;;24.65;12.30;;;;;;;23.27;44.41;101506.78;5054680;28;20453;-62
2023/06/17 06:38:13;;;;;;;21.48;12.43;;;;;;;23.37;44.04;101503.72;5036817;28;20025;-62
2023/06/17 06:40:40;;;;;;;14.30;12.35;;;;;;;23.52;44.55;101501.50;5054784;28;20061;-62
2023/06/17 06:43:05;;;;;;;16.40;12.20;;;;;;;23.68;43.50;101505.44;5036528;28;20048;-62
2023/06/17 06:45:32;;;;;;;19.98;12.85;;;;;;;23.79;43.46;101505.13;5054673;28;20020;-62
2023/06/17 06:47:57;;;;;;;18.90;12.77;;;;;;;23.91;42.47;101510.09;5054466;28;20051;-62
2023/06/17 06:50:24;;;;;;;19.50;12.57;;;;;;;24.04;42.71;101508.75;5054558;28;20160;-62
2023/06/17 06:52:50;;;;;;;18.00;12.90;;;;;;;24.26;42.52;101507.97;5054369;28;20033;-62
2023/06/17 06:55:16;;;;;;;19.90;13.50;;;;;;;24.41;42.24;101505.66;5054609;28;20025;-62
2023/06/17 06:57:41;;;;;;;16.38;12.75;;;;;;;24.64;41.21;101515.59;5033106;28;20352;-62
2023/06/17 07:00:09;;;;;;;21.00;12.18;;;;;;;24.75;40.82;101509.78;5034583;28;20045;-62
2023/06/17 07:02:35;;;;;;;17.90;12.45;;;;;;;24.81;39.38;101511.41;5034624;28;20021;-62
2023/06/17 07:05:01;;;;;;;15.40;13.43;;;;;;;25.05;40.62;101513.13;5034569;28;20025;-63
2023/06/17 07:07:27;;;;;;;21.52;12.57;;;;;;;25.23;39.73;101498.94;5034408;28;20022;-62
2023/06/17 07:09:52;;;;;;;15.48;13.10;;;;;;;25.27;39.67;101498.78;5033217;28;20029;-62
2023/06/17 07:12:17;;;;;;;16.50;13.07;;;;;;;25.49;39.38;101505.13;5032998;28;20022;-62
2023/06/17 07:14:43;;;;;;;14.93;12.45;;;;;;;25.75;38.67;101497.75;5033781;28;20572;-62
2023/06/17 07:17:08;;;;;;;16.85;12.82;;;;;;;25.93;38.62;101506.00;5034273;28;20399;-62
2023/06/17 07:19:34;;;;;;;17.40;12.00;;;;;;;26.04;37.51;101513.69;5033907;28;20021;-62
2023/06/17 07:21:59;;;;;;;38.58;13.40;;;;;;;26.14;37.81;101506.03;5034371;28;20036;-62
2023/06/17 07:24:25;;;;;;;16.15;12.88;;;;;;;26.27;37.54;101500.94;5034317;28;20029;-62
2023/06/17 07:26:50;;;;;;;16.02;11.88;;;;;;;26.30;35.87;101499.00;5034221;28;20386;-62
2023/06/17 07:29:15;;;;;;;18.00;11.75;;;;;;;26.41;36.33;101495.78;5034133;28;20025;-63
2023/06/17 07:31:41;;;;;;;16.55;11.30;;;;;;;26.55;36.04;101503.31;5033687;28;20471;-62
2023/06/17 07:34:06;;;;;;;14.95;11.73;;;;;;;26.53;35.65;101502.53;5034023;28;20116;-62
2023/06/17 07:36:32;;;;;;;22.65;11.82;;;;;;;26.69;35.53;101503.59;5033735;28;20505;-62
2023/06/17 07:38:58;;;;;;;12.57;10.82;;;;;;;26.96;33.72;101495.97;5033570;28;20021;-62
2023/06/17 07:41:24;;;;;;;14.27;11.20;;;;;;;27.21;34.06;101503.88;5033947;28;20033;-62
2023/06/17 07:43:50;;;;;;;17.38;10.52;;;;;;;27.38;32.18;101494.91;5033551;28;20567;-63
2023/06/17 07:46:15;;;;;;;18.48;10.23;;;;;;;27.47;32.36;101502.59;5033627;28;20104;-62
2023/06/17 07:48:41;;;;;;;13.10;9.40;;;;;;;27.57;31.79;101498.44;5033430;28;20344;-62
2023/06/17 07:51:07;;;;;;;15.60;9.02;;;;;;;27.75;31.31;101495.78;5033346;28;20387;-62
2023/06/17 07:53:32;;;;;;;15.05;9.63;;;;;;;27.81;30.58;101499.09;5033531;28;20086;-63
2023/06/17 07:55:58;;;;;;;19.60;10.27;;;;;;;27.98;30.83;101497.34;5033754;28;20041;-62
2023/06/17 07:58:23;;;;;;;13.70;8.95;;;;;;;28.33;29.62;101490.94;5043130;28;20131;-62
2023/06/17 08:00:48;;;;;;;12.65;8.73;;;;;;;28.55;29.08;101496.13;5035394;28;20040;-63
2023/06/17 08:03:14;;;;;;;12.32;8.55;;;;;;;28.61;28.69;101489.50;5053158;28;20017;-63
2023/06/17 08:05:39;;;;;;;10.93;8.75;;;;;;;28.90;28.04;101483.28;5053184;28;20021;-62
2023/06/17 08:08:05;;;;;;;12.75;9.13;;;;;;;29.00;28.71;101489.16;5035319;28;20352;-63
2023/06/17 08:10:30;;;;;;;12.23;8.75;;;;;;;28.94;27.51;101487.59;5053202;28;20029;-63
2023/06/17 08:12:56;;;;;;;11.27;8.30;;;;;;;29.09;27.69;101477.75;5052944;28;20449;-63
2023/06/17 08:15:22;;;;;;;16.55;8.05;;;;;;;29.30;25.75;101481.09;5053052;28;20339;-62
2023/06/17 08:17:48;;;;;;;11.07;8.93;;;;;;;29.41;27.45;101480.44;5052788;28;20083;-63
2023/06/17 08:20:16;;;;;;;12.90;8.55;;;;;;;29.40;27.10;101486.88;5052392;28;20040;-63
2023/06/17 08:22:41;;;;;;;12.25;8.43;;;;;;;29.49;26.38;101480.88;5052955;28;20029;-62
2023/06/17 08:25:07;;;;;;;12.05;8.45;;;;;;;29.78;25.29;101481.06;5052683;28;20378;-62
2023/06/17 08:27:33;;;;;;;16.02;7.68;;;;;;;29.93;24.35;101485.56;5052813;28;20027;-63
2023/06/17 08:29:58;;;;;;;12.52;7.25;;;;;;;30.19;24.92;101478.56;5052984;28;20114;-63
2023/06/17 08:32:24;;;;;;;10.90;8.63;;;;;;;30.29;25.30;101479.75;5052689;28;20095;-63
2023/06/17 08:34:49;;;;;;;11.60;8.63;;;;;;;30.30;25.85;101475.19;5052654;28;20033;-63
2023/06/17 08:37:15;;;;;;;13.73;9.25;;;;;;;30.12;25.23;101469.88;5052599;28;20104;-63
2023/06/17 08:39:42;;;;;;;15.43;9.05;;;;;;;30.13;24.85;101479.78;5053085;28;20482;-63
2023/06/17 08:42:08;;;;;;;13.75;10.02;;;;;;;30.16;25.74;101468.75;5052597;28;20584;-63
2023/06/17 08:44:38;;;;;;;13.77;8.15;;;;;;;30.43;24.55;101470.72;5052445;28;20090;-62
2023/06/17 08:47:05;;;;;;;15.30;7.78;;;;;;;30.63;25.28;101474.94;5052596;28;20043;-63
2023/06/17 08:49:30;;;;;;;10.45;8.15;;;;;;;30.81;24.09;101475.63;5052619;28;20025;-63
2023/06/17 08:51:59;;;;;;;10.30;8.27;;;;;;;30.79;24.12;101474.84;5052561;28;20075;-62
2023/06/17 08:54:27;;;;;;;11.60;7.03;;;;;;;31.31;24.13;101469.63;5052591;28;20025;-63
2023/06/17 08:56:53;;;;;;;17.13;7.15;;;;;;;31.40;24.47;101477.22;5052377;28;20056;-63
2023/06/17 08:59:19;;;;;;;10.20;7.70;;;;;;;31.42;24.03;101471.63;5052169;28;20501;-63
2023/06/17 09:01:45;;;;;;;12.18;7.07;;;;;;;31.43;23.49;101467.91;5052687;28;20033;-62
2023/06/17 09:04:13;;;;;;;8.73;6.88;;;;;;;31.37;24.32;101465.59;5052544;28;20032;-63
2023/06/17 09:06:39;;;;;;;7.82;6.97;;;;;;;31.76;23.23;101467.50;5052356;28;20082;-63
2023/06/17 09:09:05;;;;;;;12.10;7.05;;;;;;;31.78;22.53;101462.81;5034578;28;20037;-63
2023/06/17 09:11:31;;;;;;;11.40;5.60;;;;;;;31.98;21.49;101466.03;5052350;28;20040;-63
2023/06/17 09:13:59;;;;;;;8.43;5.47;;;;;;;32.07;22.06;101468.13;5052553;28;20025;-63
2023/06/17 09:16:35;;;;;;;9.50;4.95;;;;;;;32.22;21.63;101464.34;5052259;28;20501;-63
2023/06/17 09:19:06;;;;;;;11.32;4.65;;;;;;;32.28;21.16;101468.47;5052441;28;20048;-63
2023/06/17 09:21:32;;;;;;;8.95;4.30;;;;;;;32.48;20.10;101465.25;5052278;28;20538;-63
2023/06/17 09:24:04;;;;;;;6.57;4.47;;;;;;;32.61;20.21;101465.25;5052126;28;20466;-63
2023/06/17 09:26:33;;;;;;;;;;;;;;;33.11;20.68;101466.16;5034770;28;20029;-63
2023/06/17 09:29:01;;;;;;;9.82;4.53;;;;;;;32.84;19.99;101463.56;5052411;28;19948;-63
2023/06/17 09:31:26;;;;;;;7.10;4.50;;;;;;;33.12;19.80;101466.03;5052392;28;20387;-63
2023/06/17 09:33:52;;;;;;;7.45;5.40;;;;;;;33.07;19.08;101470.13;5055852;28;20036;-63
2023/06/17 09:36:18;;;;;;;8.75;5.15;;;;;;;32.99;18.94;101467.06;5055967;28;20448;-63
2023/06/17 09:38:44;;;;;;;8.90;5.63;;;;;;;33.03;19.41;101458.53;5056312;28;20051;-63
2023/06/17 09:41:14;;;;;;;11.52;5.10;;;;;;;33.09;20.25;101460.78;5056089;28;20041;-63
2023/06/17 09:43:41;;;;;;;7.75;5.25;;;;;;;33.37;19.30;101456.88;5038084;28;20486;-64
2023/06/17 09:46:09;;;;;;;9.02;5.10;;;;;;;33.33;19.58;101457.22;5055734;28;20044;-64
2023/06/17 09:48:40;;;;;;;7.93;4.97;;;;;;;33.15;19.81;101451.25;5055713;28;20029;-65
2023/06/17 09:51:09;;;;;;;10.77;5.43;;;;;;;33.47;19.17;101456.19;5056030;28;20118;-64
2023/06/17 09:53:36;;;;;;;12.45;4.70;;;;;;;33.69;19.69;101450.81;5055811;28;20033;-65
2023/06/17 09:56:02;;;;;;;6.43;4.68;;;;;;;34.02;20.30;101452.81;5055623;28;20429;-64
2023/06/17 09:58:29;;;;;;;9.25;4.78;;;;;;;34.28;19.44;101452.63;5055555;28;20045;-64
2023/06/17 10:01:00;;;;;;;8.98;4.70;;;;;;;33.86;20.24;101449.50;5055640;28;20036;-65
2023/06/17 10:03:26;;;;;;;7.32;4.88;;;;;;;34.07;19.24;101446.97;5055654;28;20029;-64
2023/06/17 10:06:00;;;;;;;7.65;4.70;;;;;;;34.28;18.90;101453.50;5055711;28;20021;-64
2023/06/17 10:08:29;;;;;;;7.30;4.55;;;;;;;34.38;18.46;101457.25;5055568;28;20028;-64
2023/06/17 10:10:58;;;;;;;8.40;5.00;;;;;;;34.77;18.24;101445.94;5037614;28;20098;-65
2023/06/17 10:13:25;;;;;;;6.90;4.78;;;;;;;34.87;17.91;101446.94;5055471;28;20048;-64
2023/06/17 10:15:52;;;;;;;9.65;4.45;;;;;;;34.78;18.53;101448.59;5055253;28;20482;-64
2023/06/17 10:18:20;;;;;;;8.35;4.30;;;;;;;35.01;18.01;101438.47;5055225;28;20372;-64
2023/06/17 10:20:48;;;;;;;8.38;4.60;;;;;;;34.84;18.44;101436.22;5055484;28;20032;-64
2023/06/17 10:23:15;;;;;;;6.57;4.43;;;;;;;34.76;18.67;101445.06;5054971;28;20115;-64
2023/06/17 10:25:41;;;;;;;8.93;4.50;;;;;;;34.69;18.64;101432.88;5055106;28;20033;-64
2023/06/17 10:28:07;;;;;;;6.35;4.35;;;;;;;34.56;18.51;101438.47;5055010;28;20033;-64
2023/06/17 10:30:34;;;;;;;8.85;4.30;;;;;;;34.83;18.35;101431.72;5055078;28;20083;-63
2023/06/17 10:33:02;;;;;;;7.70;4.20;;;;;;;34.89;18.21;101426.59;5055032;28;20037;-63
2023/06/17 10:35:37;;;;;;;6.22;4.40;;;;;;;35.28;18.55;101434.41;5055001;28;20478;-64
2023/06/17 10:38:03;;;;;;;9.57;4.90;;;;;;;35.12;17.71;101421.09;5055128;28;20098;-64
2023/06/17 10:40:31;;;;;;;6.32;4.25;;;;;;;35.47;17.33;101420.88;5054815;28;20471;-64
2023/06/17 10:43:02;;;;;;;9.18;4.40;;;;;;;35.71;18.30;101422.50;5054659;28;20162;-64
2023/06/17 10:45:31;;;;;;;;;;;;;;;36.13;17.43;101419.81;5055454;28;20029;-64
2023/06/17 10:48:27;;;;;;;5.45;4.38;;;;;;;35.86;17.50;101416.56;5055013;28;20021;-64
2023/06/17 10:50:58;;;;;;;5.75;3.90;;;;;;;36.07;18.88;101416.59;5054798;28;20079;-64
2023/06/17 10:53:36;;;;;;;4.97;3.67;;;;;;;35.95;17.70;101416.78;5054951;28;20028;-63
2023/06/17 10:56:03;;;;;;;7.00;3.90;;;;;;;35.73;16.34;101418.66;5054650;28;20021;-64
2023/06/17 10:58:34;;;;;;;7.57;3.95;;;;;;;36.16;16.47;101416.78;5054366;28;20128;-63
2023/06/17 11:01:00;;;;;;;;;;;;;;;36.55;16.31;101413.25;5055001;28;20116;-64
2023/06/17 11:03:26;;;;;;;5.45;3.92;;;;;;;35.94;16.36;101410.41;5054626;28;19916;-65
2023/06/17 11:05:53;;;;;;;9.77;3.90;;;;;;;36.39;15.50;101399.09;5054320;28;20091;-65
2023/06/17 11:08:18;;;;;;;7.35;3.95;;;;;;;36.18;14.98;101406.50;5054538;28;20374;-64
2023/06/17 11:10:44;;;;;;;11.05;3.83;;;;;;;36.35;15.67;101409.50;5054523;28;20493;-64
2023/06/17 11:13:10;;;;;;;6.43;4.18;;;;;;;36.35;15.55;101408.63;5054357;28;20501;-64
2023/06/17 11:15:36;;;;;;;7.93;3.88;;;;;;;36.29;16.17;101403.69;5054078;28;20029;-64
2023/06/17 11:18:03;;;;;;;5.63;3.70;;;;;;;36.30;16.77;101400.78;5054193;28;20569;-64